King City, California
Current Conditions -  °F | °C
As of 5:53 PM on Saturday 25 Oct 2014 (Local Time) from KSNS Reporting Station
Clear Clear  
Wind Chill: 67°   Ceiling: Unl
Heat Index: 67°   Visibility: 10mi
Dew Point: 54°   Wind: 7mph
Humidity: 63%   Direction: 270°W
Pressure: 30.08"   Gusts: NA
Location:  36.21°N, 121.12°W
Report Text: KSNS 260053Z 27006KT 10SM CLR 19/12 A3008 RMK AO2 SLP194 T01940122
Loading
Personal Weather Stations






























Interactive Weather Map
Tropical Storm Tracking
New forecast layout! Learn more

10-Day Weather Forecast

Advertisements
Track Severe Weather on mobile